Time;durP1;ratioP1;P1;durP2;ratioP2;P2;SDS_P1;SDS_P2;PMS_P1;PMS_P2;Temp;Humidity;BMP_temperature;BMP_pressure;BME280_temperature;BME280_humidity;BME280_pressure;Samples;Min_cycle;Max_cycle;Signal;HPM_P1;HPM_P2
2023/06/26 00:01:56;;;;;;;12.98;6.70;;;;;;;;;;5019810;28;20049;-81
2023/06/26 00:04:22;;;;;;;13.32;7.00;;;;;;;;;;5019754;28;20072;-81
2023/06/26 00:06:49;;;;;;;13.52;7.40;;;;;;;;;;5015626;28;20069;-79
2023/06/26 00:09:15;;;;;;;14.50;6.70;;;;;;;;;;5015751;28;20046;-80
2023/06/26 00:11:42;;;;;;;10.55;6.35;;;;;;;;;;5033277;28;20105;-79
2023/06/26 00:14:08;;;;;;;10.98;6.03;;;;;;;;;;5034460;28;20041;-80
2023/06/26 00:16:36;;;;;;;12.88;5.47;;;;;;;;;;5034274;28;20049;-80
2023/06/26 00:19:02;;;;;;;15.77;5.60;;;;;;;;;;5034957;28;20080;-80
2023/06/26 00:21:29;;;;;;;10.18;5.50;;;;;;;;;;5018141;28;20101;-80
2023/06/26 00:23:55;;;;;;;10.82;5.78;;;;;;;;;;5017785;28;20124;-80
2023/06/26 00:26:24;;;;;;;9.00;5.78;;;;;;;;;;5019092;28;20080;-80
2023/06/26 00:28:51;;;;;;;9.52;5.60;;;;;;;;;;5019497;28;20048;-79
2023/06/26 00:31:19;;;;;;;14.13;5.35;;;;;;;;;;5036637;28;20045;-80
2023/06/26 00:33:48;;;;;;;10.73;5.80;;;;;;;;;;5026452;28;20094;-81
2023/06/26 00:36:15;;;;;;;10.73;5.30;;;;;;;;;;5034289;28;20041;-80
2023/06/26 00:38:45;;;;;;;14.43;5.28;;;;;;;;;;5030811;28;20076;-80
2023/06/26 00:41:12;;;;;;;10.77;5.78;;;;;;;;;;5031948;28;20496;-80
2023/06/26 00:43:40;;;;;;;11.13;5.57;;;;;;;;;;5009398;28;20040;-80
2023/06/26 00:46:10;;;;;;;12.05;5.40;;;;;;;;;;5011821;28;20046;-81
2023/06/26 00:48:41;;;;;;;12.27;5.75;;;;;;;;;;5016000;28;20466;-78
2023/06/26 00:51:11;;;;;;;14.15;5.78;;;;;;;;;;5034820;28;20497;-79
2023/06/26 00:53:38;;;;;;;13.90;5.07;;;;;;;;;;5023551;28;20045;-80
2023/06/26 00:56:05;;;;;;;10.82;5.40;;;;;;;;;;5015981;28;20041;-80
2023/06/26 00:58:31;;;;;;;16.65;6.72;;;;;;;;;;5034867;28;20064;-79
2023/06/26 01:01:00;;;;;;;10.43;5.85;;;;;;;;;;5035897;28;20045;-80
2023/06/26 01:03:27;;;;;;;11.40;5.65;;;;;;;;;;5035834;28;20072;-80
2023/06/26 01:05:56;;;;;;;16.25;5.60;;;;;;;;;;5017942;28;20561;-80
2023/06/26 01:08:23;;;;;;;12.88;6.10;;;;;;;;;;5014102;28;20216;-79
2023/06/26 01:10:50;;;;;;;16.35;6.07;;;;;;;;;;5033164;28;20139;-79
2023/06/26 01:13:17;;;;;;;18.90;5.75;;;;;;;;;;5035916;28;20471;-78
2023/06/26 01:15:44;;;;;;;15.93;6.00;;;;;;;;;;5035988;28;20120;-80
2023/06/26 01:18:11;;;;;;;18.05;6.28;;;;;;;;;;5035265;28;20037;-79
2023/06/26 01:20:42;;;;;;;13.30;5.40;;;;;;;;;;5035911;28;20037;-79
2023/06/26 01:23:12;;;;;;;14.23;5.55;;;;;;;;;;5042098;28;20030;-81
2023/06/26 01:25:51;;;;;;;11.63;6.28;;;;;;;;;;5046702;28;20041;-80
2023/06/26 01:28:19;;;;;;;15.25;6.00;;;;;;;;;;5044973;28;20045;-81
2023/06/26 01:30:46;;;;;;;10.73;5.47;;;;;;;;;;5055800;28;20041;-81
2023/06/26 01:33:13;;;;;;;13.80;5.95;;;;;;;;;;5039273;28;20536;-80
2023/06/26 01:35:40;;;;;;;12.38;6.28;;;;;;;;;;5038164;28;20046;-81
2023/06/26 01:38:17;;;;;;;12.10;5.82;;;;;;;;;;5052953;28;20045;-80
2023/06/26 01:40:44;;;;;;;13.70;6.80;;;;;;;;;;5037090;28;20525;-81
2023/06/26 01:43:17;;;;;;;12.93;6.15;;;;;;;;;;5034698;28;20038;-79
2023/06/26 01:45:45;;;;;;;13.63;6.70;;;;;;;;;;5029273;28;20046;-80
2023/06/26 01:48:12;;;;;;;18.00;6.38;;;;;;;;;;5012563;28;20042;-80
2023/06/26 01:50:41;;;;;;;16.63;6.50;;;;;;;;;;5014697;28;20096;-79
2023/06/26 01:53:12;;;;;;;14.10;6.15;;;;;;;;;;5013640;28;20072;-79
2023/06/26 01:55:38;;;;;;;14.38;7.03;;;;;;;;;;5014634;28;20364;-79
2023/06/26 01:58:05;;;;;;;16.38;6.60;;;;;;;;;;5013412;28;20059;-80
2023/06/26 02:00:33;;;;;;;16.48;6.35;;;;;;;;;;4997685;28;20077;-80
2023/06/26 02:02:59;;;;;;;19.13;6.22;;;;;;;;;;5015959;28;20038;-79
2023/06/26 02:05:27;;;;;;;16.42;6.22;;;;;;;;;;4997377;28;20052;-81
2023/06/26 02:07:53;;;;;;;14.60;6.20;;;;;;;;;;5013920;28;20062;-79
2023/06/26 02:10:20;;;;;;;16.90;6.63;;;;;;;;;;5014439;28;20112;-80
2023/06/26 02:12:46;;;;;;;18.35;6.07;;;;;;;;;;5017882;28;20372;-81
2023/06/26 02:15:13;;;;;;;13.93;6.75;;;;;;;;;;5015576;28;20041;-79
2023/06/26 02:17:40;;;;;;;15.88;6.88;;;;;;;;;;5015348;28;20058;-80
2023/06/26 02:20:09;;;;;;;13.65;6.57;;;;;;;;;;5016753;28;20108;-81
2023/06/26 02:22:36;;;;;;;21.50;6.45;;;;;;;;;;5015455;28;20149;-80
2023/06/26 02:25:03;;;;;;;13.95;6.95;;;;;;;;;;5015970;28;20442;-80
2023/06/26 02:27:31;;;;;;;16.15;6.70;;;;;;;;;;5015033;28;20078;-81
2023/06/26 02:29:58;;;;;;;11.88;5.88;;;;;;;;;;5014818;28;20099;-81
2023/06/26 02:32:24;;;;;;;17.52;6.40;;;;;;;;;;5017858;28;20057;-80
2023/06/26 02:34:51;;;;;;;20.95;6.65;;;;;;;;;;5017644;28;20049;-81
2023/06/26 02:37:18;;;;;;;17.15;6.50;;;;;;;;;;5019609;28;20049;-80
2023/06/26 02:39:45;;;;;;;19.77;6.95;;;;;;;;;;5013720;28;20073;-78
2023/06/26 02:42:12;;;;;;;20.23;6.75;;;;;;;;;;5015255;28;20541;-80
2023/06/26 02:44:40;;;;;;;23.80;6.63;;;;;;;;;;5014078;28;20261;-79
2023/06/26 02:47:06;;;;;;;24.30;6.50;;;;;;;;;;5012613;28;20120;-80
2023/06/26 02:49:37;;;;;;;22.10;6.75;;;;;;;;;;5002524;28;20058;-81
2023/06/26 02:52:03;;;;;;;18.40;7.20;;;;;;;;;;4995152;28;20064;-81
2023/06/26 02:54:30;;;;;;;18.85;7.50;;;;;;;;;;5007544;28;20050;-81
2023/06/26 02:57:01;;;;;;;22.63;6.88;;;;;;;;;;5023452;28;20045;-80
2023/06/26 02:59:30;;;;;;;20.65;6.88;;;;;;;;;;5007987;28;20068;-82
2023/06/26 03:01:57;;;;;;;23.30;6.60;;;;;;;;;;5009661;28;20045;-80
2023/06/26 03:04:33;;;;;;;14.77;6.72;;;;;;;;;;5012230;28;20088;-80
2023/06/26 03:07:01;;;;;;;22.48;6.50;;;;;;;;;;5021086;28;20049;-81
2023/06/26 03:09:28;;;;;;;21.20;7.35;;;;;;;;;;5019765;28;20053;-80
2023/06/26 03:11:55;;;;;;;17.40;6.45;;;;;;;;;;5002392;28;20051;-80
2023/06/26 03:14:22;;;;;;;14.27;6.20;;;;;;;;;;5019201;28;20041;-80
2023/06/26 03:16:51;;;;;;;17.00;6.45;;;;;;;;;;5017701;28;20264;-80
2023/06/26 03:19:17;;;;;;;21.17;7.25;;;;;;;;;;5018101;28;20045;-80
2023/06/26 03:22:07;;;;;;;19.27;6.80;;;;;;;;;;5035645;28;20132;-80
2023/06/26 03:24:34;;;;;;;11.45;6.30;;;;;;;;;;5014907;28;20057;-80
2023/06/26 03:27:01;;;;;;;23.42;6.63;;;;;;;;;;5031105;28;20453;-80
2023/06/26 03:29:29;;;;;;;22.17;6.22;;;;;;;;;;5013134;28;20060;-79
2023/06/26 03:31:56;;;;;;;15.52;6.28;;;;;;;;;;5015373;28;20068;-80
2023/06/26 03:34:23;;;;;;;16.05;6.78;;;;;;;;;;5014853;28;20482;-82
2023/06/26 03:36:50;;;;;;;14.23;7.03;;;;;;;;;;5026374;28;20075;-80
2023/06/26 03:39:16;;;;;;;17.75;6.57;;;;;;;;;;5012164;28;20041;-80
2023/06/26 03:41:43;;;;;;;19.83;6.90;;;;;;;;;;5012022;28;20042;-80
2023/06/26 03:44:09;;;;;;;18.10;6.68;;;;;;;;;;5012334;28;20052;-80
2023/06/26 03:46:43;;;;;;;20.98;6.70;;;;;;;;;;5001768;28;20046;-79
2023/06/26 03:49:10;;;;;;;13.32;6.45;;;;;;;;;;5034205;28;20046;-81
2023/06/26 03:51:37;;;;;;;16.92;7.13;;;;;;;;;;4998366;28;20454;-81
2023/06/26 03:54:04;;;;;;;14.82;6.57;;;;;;;;;;5015033;28;20060;-78
2023/06/26 03:56:30;;;;;;;18.83;6.53;;;;;;;;;;5002003;28;20651;-80
2023/06/26 03:58:57;;;;;;;20.42;7.07;;;;;;;;;;5033714;28;20050;-81
2023/06/26 04:01:25;;;;;;;18.33;7.57;;;;;;;;;;5016740;28;20053;-81
2023/06/26 04:03:52;;;;;;;15.18;7.68;;;;;;;;;;5034408;28;20482;-80
2023/06/26 04:06:19;;;;;;;13.73;7.35;;;;;;;;;;5009517;28;20044;-72
2023/06/26 04:08:46;;;;;;;15.73;7.93;;;;;;;;;;5005299;28;20200;-73
2023/06/26 04:11:13;;;;;;;18.30;8.43;;;;;;;;;;5007036;28;20038;-72
2023/06/26 04:13:39;;;;;;;13.65;7.72;;;;;;;;;;5010777;28;20046;-74
2023/06/26 04:16:06;;;;;;;15.75;7.78;;;;;;;;;;5009097;28;20108;-73
2023/06/26 04:18:33;;;;;;;16.42;9.70;;;;;;;;;;5013898;28;20054;-80
2023/06/26 04:21:12;;;;;;;14.57;8.55;;;;;;;;;;5017964;28;20045;-82
2023/06/26 04:23:40;;;;;;;15.35;8.45;;;;;;;;;;5002967;28;20050;-81
2023/06/26 04:26:07;;;;;;;17.92;8.35;;;;;;;;;;5017749;28;20130;-81
2023/06/26 04:28:34;;;;;;;12.63;7.85;;;;;;;;;;5000235;28;20474;-80
2023/06/26 04:31:08;;;;;;;14.33;8.00;;;;;;;;;;5017807;28;20070;-81
2023/06/26 04:33:38;;;;;;;13.20;7.88;;;;;;;;;;5018621;28;20045;-80
2023/06/26 04:36:08;;;;;;;12.18;7.82;;;;;;;;;;5017916;28;20053;-81
2023/06/26 04:38:35;;;;;;;15.68;8.68;;;;;;;;;;5017488;28;20102;-80
2023/06/26 04:41:02;;;;;;;17.15;8.55;;;;;;;;;;5003449;28;20125;-78
2023/06/26 04:43:29;;;;;;;17.30;8.40;;;;;;;;;;5021250;28;20092;-79
2023/06/26 04:45:56;;;;;;;14.45;8.27;;;;;;;;;;5016597;28;20072;-81
2023/06/26 04:48:22;;;;;;;14.02;8.15;;;;;;;;;;5017478;28;20058;-80
2023/06/26 04:50:53;;;;;;;14.18;8.35;;;;;;;;;;5019259;28;20536;-81
2023/06/26 04:53:21;;;;;;;15.18;8.30;;;;;;;;;;5020695;28;20054;-78
2023/06/26 04:55:52;;;;;;;14.00;8.00;;;;;;;;;;5020040;28;20132;-81
2023/06/26 04:58:19;;;;;;;12.27;7.15;;;;;;;;;;5019990;28;20121;-81
2023/06/26 05:01:10;;;;;;;12.18;7.25;;;;;;;;;;5000658;28;20158;-78
2023/06/26 05:03:47;;;;;;;17.67;7.88;;;;;;;;;;5018360;28;20060;-78
2023/06/26 05:06:14;;;;;;;13.10;7.82;;;;;;;;;;4997240;28;20046;-77
2023/06/26 05:08:41;;;;;;;14.38;7.78;;;;;;;;;;5006269;28;20049;-81
2023/06/26 05:11:10;;;;;;;17.42;7.50;;;;;;;;;;5027896;28;20046;-81
2023/06/26 05:13:37;;;;;;;13.52;7.45;;;;;;;;;;5028243;28;20046;-81
2023/06/26 05:16:04;;;;;;;12.20;7.20;;;;;;;;;;5007863;28;20133;-81
2023/06/26 05:18:30;;;;;;;14.70;6.95;;;;;;;;;;5014410;28;20045;-81
2023/06/26 05:20:57;;;;;;;14.20;7.80;;;;;;;;;;5011832;28;20054;-83
2023/06/26 05:23:25;;;;;;;14.15;7.15;;;;;;;;;;5028976;28;20089;-81
2023/06/26 05:25:52;;;;;;;12.35;6.57;;;;;;;;;;5011767;28;20068;-80
2023/06/26 05:28:19;;;;;;;21.08;7.15;;;;;;;;;;4995594;28;20073;-82
2023/06/26 05:30:46;;;;;;;17.38;7.78;;;;;;;;;;5013546;28;20046;-84
2023/06/26 05:33:14;;;;;;;15.25;7.60;;;;;;;;;;5014978;28;20049;-82
2023/06/26 05:35:41;;;;;;;12.63;7.25;;;;;;;;;;5040750;28;20029;-82
2023/06/26 05:38:08;;;;;;;11.45;6.65;;;;;;;;;;5050195;28;20021;-81
2023/06/26 05:40:35;;;;;;;13.68;6.75;;;;;;;;;;5049355;28;20045;-83
2023/06/26 05:43:02;;;;;;;9.68;6.32;;;;;;;;;;5046835;28;20049;-81
2023/06/26 05:45:29;;;;;;;13.93;6.70;;;;;;;;;;5028859;28;20044;-82
2023/06/26 05:47:55;;;;;;;9.10;6.60;;;;;;;;;;5028037;28;20057;-84
2023/06/26 05:50:22;;;;;;;10.75;6.47;;;;;;;;;;5030142;28;20046;-83
2023/06/26 05:52:49;;;;;;;12.57;6.65;;;;;;;;;;5022864;28;20137;-80
2023/06/26 05:55:16;;;;;;;9.63;6.47;;;;;;;;;;5027255;28;20073;-81
2023/06/26 05:57:43;;;;;;;10.48;6.30;;;;;;;;;;5026327;28;20080;-82
2023/06/26 06:00:10;;;;;;;10.85;6.25;;;;;;;;;;5029174;28;20079;-82
2023/06/26 06:02:42;;;;;;;13.63;6.35;;;;;;;;;;5028386;28;20061;-82
2023/06/26 06:05:09;;;;;;;12.57;6.70;;;;;;;;;;5034905;28;20041;-84
2023/06/26 06:07:36;;;;;;;10.45;5.72;;;;;;;;;;5032700;28;20109;-81
2023/06/26 06:10:06;;;;;;;9.82;5.70;;;;;;;;;;5031691;28;20029;-83
2023/06/26 06:12:33;;;;;;;11.48;5.10;;;;;;;;;;5029652;28;20330;-82
2023/06/26 06:14:59;;;;;;;12.82;5.88;;;;;;;;;;5047656;28;20105;-82
2023/06/26 06:17:26;;;;;;;11.60;5.57;;;;;;;;;;5030408;28;20098;-80
2023/06/26 06:19:53;;;;;;;12.18;5.63;;;;;;;;;;5026395;28;20052;-81
2023/06/26 06:22:21;;;;;;;9.43;5.18;;;;;;;;;;5029671;28;20050;-81
2023/06/26 06:24:48;;;;;;;10.13;5.40;;;;;;;;;;5040321;28;20041;-81
2023/06/26 06:27:17;;;;;;;9.55;4.90;;;;;;;;;;5037414;28;20052;-81
2023/06/26 06:29:44;;;;;;;10.95;5.72;;;;;;;;;;5021471;28;20068;-80
2023/06/26 06:32:11;;;;;;;9.20;5.50;;;;;;;;;;5039646;28;20065;-81
2023/06/26 06:34:37;;;;;;;8.05;5.10;;;;;;;;;;5044529;28;20045;-82
2023/06/26 06:37:07;;;;;;;12.07;5.50;;;;;;;;;;5040713;28;20055;-81
2023/06/26 06:39:34;;;;;;;6.22;5.00;;;;;;;;;;5044381;28;20041;-82
2023/06/26 06:42:03;;;;;;;10.18;4.82;;;;;;;;;;5027637;28;20033;-81
2023/06/26 06:44:30;;;;;;;9.27;5.03;;;;;;;;;;5029360;28;20100;-80
2023/06/26 06:46:57;;;;;;;6.90;4.80;;;;;;;;;;4994254;28;20133;-82
2023/06/26 06:49:24;;;;;;;8.68;5.25;;;;;;;;;;5011283;28;20112;-79
2023/06/26 06:51:50;;;;;;;12.90;4.90;;;;;;;;;;5029892;28;20053;-82
2023/06/26 06:54:17;;;;;;;12.48;4.82;;;;;;;;;;5027396;28;20090;-83
2023/06/26 06:56:44;;;;;;;7.20;4.28;;;;;;;;;;4995580;28;20049;-82
2023/06/26 06:59:10;;;;;;;6.75;4.72;;;;;;;;;;5029062;28;20053;-83
2023/06/26 07:01:37;;;;;;;8.45;4.88;;;;;;;;;;5011627;28;20085;-84
2023/06/26 07:04:04;;;;;;;9.13;4.80;;;;;;;;;;5028968;28;20026;-83
2023/06/26 07:06:31;;;;;;;6.10;4.55;;;;;;;;;;5030337;28;20033;-82
2023/06/26 07:08:57;;;;;;;10.45;4.75;;;;;;;;;;5029144;28;20050;-83
2023/06/26 07:11:24;;;;;;;8.93;5.07;;;;;;;;;;4992359;28;20109;-83
2023/06/26 07:13:51;;;;;;;6.60;4.40;;;;;;;;;;5010090;28;20049;-81
2023/06/26 07:16:20;;;;;;;9.02;4.40;;;;;;;;;;5010451;28;20065;-83
2023/06/26 07:19:33;;;;;;;15.38;5.00;;;;;;;;;;5009476;28;20220;-83
2023/06/26 07:22:00;;;;;;;9.48;4.47;;;;;;;;;;5021719;28;20046;-81
2023/06/26 07:24:27;;;;;;;7.68;4.63;;;;;;;;;;5006850;28;20106;-81
2023/06/26 07:26:56;;;;;;;9.15;5.25;;;;;;;;;;5008609;28;20053;-83
2023/06/26 07:29:23;;;;;;;9.52;4.68;;;;;;;;;;5027693;28;20086;-83
2023/06/26 07:31:50;;;;;;;6.55;4.97;;;;;;;;;;5012643;28;20050;-83
2023/06/26 07:34:17;;;;;;;10.90;4.90;;;;;;;;;;5006643;28;20238;-85
2023/06/26 07:36:43;;;;;;;7.60;5.25;;;;;;;;;;5020926;28;20050;-83
2023/06/26 07:39:10;;;;;;;6.50;4.65;;;;;;;;;;5023486;28;20049;-80
2023/06/26 07:41:44;;;;;;;12.55;5.18;;;;;;;;;;5022838;28;20054;-84
2023/06/26 07:44:10;;;;;;;5.88;4.28;;;;;;;;;;5031942;28;20091;-82
2023/06/26 07:46:37;;;;;;;5.85;4.38;;;;;;;;;;5008497;28;20077;-83
2023/06/26 07:49:04;;;;;;;7.35;4.78;;;;;;;;;;5009467;28;20053;-82
2023/06/26 07:51:30;;;;;;;7.72;4.63;;;;;;;;;;5007980;28;20064;-81
2023/06/26 07:53:57;;;;;;;8.32;4.53;;;;;;;;;;5007192;28;20044;-81
2023/06/26 07:56:23;;;;;;;6.28;4.70;;;;;;;;;;5030702;28;20053;-80
2023/06/26 07:58:50;;;;;;;7.40;4.95;;;;;;;;;;5044716;28;20128;-80
2023/06/26 08:01:17;;;;;;;8.77;5.10;;;;;;;;;;5026109;28;20129;-79
2023/06/26 08:03:43;;;;;;;5.72;4.40;;;;;;;;;;5024864;28;20077;-79
2023/06/26 08:06:11;;;;;;;7.13;4.80;;;;;;;;;;5028869;28;20060;-80
2023/06/26 08:08:38;;;;;;;11.07;4.60;;;;;;;;;;5010177;28;20469;-80
2023/06/26 08:11:04;;;;;;;9.45;4.90;;;;;;;;;;5005396;28;20145;-81
2023/06/26 08:13:31;;;;;;;8.07;4.78;;;;;;;;;;5023763;28;20045;-81
2023/06/26 08:15:58;;;;;;;7.35;4.93;;;;;;;;;;5043369;28;20041;-82
2023/06/26 08:18:24;;;;;;;7.47;4.97;;;;;;;;;;5025932;28;20068;-82
2023/06/26 08:20:51;;;;;;;8.48;4.70;;;;;;;;;;5042934;28;20057;-81
2023/06/26 08:23:18;;;;;;;9.90;5.57;;;;;;;;;;5025099;28;20056;-80
2023/06/26 08:25:44;;;;;;;7.22;4.85;;;;;;;;;;5041703;28;20068;-81
2023/06/26 08:28:12;;;;;;;6.15;4.50;;;;;;;;;;5042083;28;20041;-83
2023/06/26 08:30:38;;;;;;;7.45;4.70;;;;;;;;;;5045291;28;20056;-80
2023/06/26 08:33:10;;;;;;;5.82;4.60;;;;;;;;;;5043773;28;20056;-79
2023/06/26 08:35:37;;;;;;;7.65;4.82;;;;;;;;;;5027447;28;20065;-83
2023/06/26 08:38:04;;;;;;;7.75;5.07;;;;;;;;;;5042880;28;20045;-82
2023/06/26 08:40:31;;;;;;;10.73;4.72;;;;;;;;;;5042808;28;20045;-82
2023/06/26 08:43:03;;;;;;;7.00;4.57;;;;;;;;;;5042179;28;20026;-80
2023/06/26 08:45:29;;;;;;;6.90;4.32;;;;;;;;;;5034057;28;20045;-83
2023/06/26 08:47:59;;;;;;;8.68;4.70;;;;;;;;;;5023456;28;20037;-83
2023/06/26 08:50:30;;;;;;;5.72;4.47;;;;;;;;;;5025933;28;20042;-82
2023/06/26 08:53:04;;;;;;;5.80;4.50;;;;;;;;;;5034135;28;20049;-81
2023/06/26 08:55:31;;;;;;;9.20;4.80;;;;;;;;;;5026842;28;20034;-82
2023/06/26 08:57:58;;;;;;;6.78;5.00;;;;;;;;;;5030417;28;20273;-82
2023/06/26 09:00:25;;;;;;;9.05;5.05;;;;;;;;;;5011361;28;20063;-83
2023/06/26 09:02:51;;;;;;;7.15;4.88;;;;;;;;;;5013098;28;25082;-82
2023/06/26 09:05:19;;;;;;;7.05;4.40;;;;;;;;;;5030700;28;20037;-81
2023/06/26 09:07:46;;;;;;;6.18;4.88;;;;;;;;;;5028983;28;20060;-82
2023/06/26 09:10:12;;;;;;;7.03;4.60;;;;;;;;;;5011448;28;20054;-81
2023/06/26 09:12:39;;;;;;;8.23;4.32;;;;;;;;;;5007713;28;20030;-82
2023/06/26 09:15:06;;;;;;;6.55;4.30;;;;;;;;;;5012087;28;20101;-80
2023/06/26 09:17:33;;;;;;;7.57;4.75;;;;;;;;;;5011514;28;20050;-82
2023/06/26 09:20:04;;;;;;;7.45;4.80;;;;;;;;;;5033903;28;20057;-81
2023/06/26 09:22:35;;;;;;;14.60;4.72;;;;;;;;;;5029513;28;20136;-83
2023/06/26 09:25:03;;;;;;;5.97;4.28;;;;;;;;;;5049241;28;20060;-86
2023/06/26 09:27:30;;;;;;;5.70;4.65;;;;;;;;;;5049765;28;20045;-82
2023/06/26 09:29:58;;;;;;;8.77;4.93;;;;;;;;;;5046327;28;20056;-83
2023/06/26 09:32:30;;;;;;;9.13;4.30;;;;;;;;;;5045640;28;20116;-80
2023/06/26 09:34:57;;;;;;;8.65;4.53;;;;;;;;;;5048426;28;20033;-80
2023/06/26 09:37:24;;;;;;;5.43;4.28;;;;;;;;;;5044610;28;20053;-82
2023/06/26 09:39:51;;;;;;;6.68;4.70;;;;;;;;;;5044026;28;20104;-81
2023/06/26 09:42:18;;;;;;;10.82;4.47;;;;;;;;;;5045245;28;20068;-82
2023/06/26 09:44:45;;;;;;;7.70;4.32;;;;;;;;;;5026866;28;20062;-84
2023/06/26 09:47:12;;;;;;;7.63;4.40;;;;;;;;;;5044814;28;20045;-81
2023/06/26 09:49:44;;;;;;;6.07;4.50;;;;;;;;;;5022524;28;20037;-84
2023/06/26 09:52:15;;;;;;;7.43;4.45;;;;;;;;;;5022803;28;20042;-82
2023/06/26 09:55:06;;;;;;;5.68;4.43;;;;;;;;;;5029696;28;20052;-83
2023/06/26 09:57:34;;;;;;;5.75;4.25;;;;;;;;;;5030710;28;20030;-83
2023/06/26 10:00:01;;;;;;;4.78;3.92;;;;;;;;;;5032042;28;20102;-83
2023/06/26 10:02:37;;;;;;;6.15;4.55;;;;;;;;;;5022670;28;20034;-81
2023/06/26 10:05:05;;;;;;;7.13;4.38;;;;;;;;;;5024525;28;20049;-81
2023/06/26 10:07:31;;;;;;;4.72;4.05;;;;;;;;;;5019122;28;20045;-81
2023/06/26 10:10:00;;;;;;;5.72;4.18;;;;;;;;;;5020232;28;20079;-82
2023/06/26 10:12:28;;;;;;;7.38;4.07;;;;;;;;;;5019381;28;20057;-83
2023/06/26 10:14:56;;;;;;;6.97;4.53;;;;;;;;;;5016934;28;20580;-82
2023/06/26 10:17:25;;;;;;;6.40;4.13;;;;;;;;;;5018131;28;20050;-83
2023/06/26 10:19:53;;;;;;;5.03;4.50;;;;;;;;;;5029322;28;20443;-84
2023/06/26 10:22:21;;;;;;;5.38;4.40;;;;;;;;;;5018769;28;20058;-83
2023/06/26 10:24:49;;;;;;;6.20;4.13;;;;;;;;;;5017551;28;20045;-82
2023/06/26 10:27:15;;;;;;;7.38;4.20;;;;;;;;;;5021895;28;20049;-81
2023/06/26 10:29:47;;;;;;;4.78;4.18;;;;;;;;;;5024031;28;20045;-83
2023/06/26 10:32:14;;;;;;;5.15;4.50;;;;;;;;;;5021038;28;20081;-82
2023/06/26 10:34:41;;;;;;;5.65;4.50;;;;;;;;;;5026811;28;20106;-82
2023/06/26 10:37:08;;;;;;;8.90;4.55;;;;;;;;;;5025723;28;20107;-83
2023/06/26 10:39:49;;;;;;;6.32;4.75;;;;;;;;;;5023371;28;20072;-81
2023/06/26 10:42:17;;;;;;;7.75;4.63;;;;;;;;;;5004897;28;20042;-81
2023/06/26 10:44:45;;;;;;;7.50;4.72;;;;;;;;;;5032184;28;20064;-83
2023/06/26 10:47:28;;;;;;;4.95;4.45;;;;;;;;;;5020861;28;20042;-80
2023/06/26 10:49:55;;;;;;;10.43;4.90;;;;;;;;;;5020373;28;20062;-82
2023/06/26 10:52:36;;;;;;;4.90;4.40;;;;;;;;;;5021175;28;20060;-82
2023/06/26 10:55:03;;;;;;;5.57;4.50;;;;;;;;;;5020802;28;20042;-81
2023/06/26 10:57:29;;;;;;;4.93;4.43;;;;;;;;;;5003674;28;20383;-83
2023/06/26 11:00:10;;;;;;;7.55;4.63;;;;;;;;;;5005908;28;20042;-82
2023/06/26 11:02:51;;;;;;;5.37;4.43;;;;;;;;;;5007373;28;20042;-81
2023/06/26 11:05:26;;;;;;;9.25;4.70;;;;;;;;;;5004261;28;20053;-81
2023/06/26 11:08:08;;;;;;;12.73;5.25;;;;;;;;;;5015184;28;20046;-83
2023/06/26 11:10:48;;;;;;;5.22;4.68;;;;;;;;;;5018968;28;20236;-82
2023/06/26 11:13:16;;;;;;;6.95;5.40;;;;;;;;;;5001690;28;20046;-82
2023/06/26 11:15:44;;;;;;;6.97;4.80;;;;;;;;;;5023666;28;20042;-82
2023/06/26 11:18:12;;;;;;;5.43;4.72;;;;;;;;;;5022446;28;20149;-81
2023/06/26 11:20:38;;;;;;;6.80;5.30;;;;;;;;;;5015954;28;20129;-82
2023/06/26 11:23:07;;;;;;;6.65;5.25;;;;;;;;;;5018909;28;20061;-83
2023/06/26 11:25:37;;;;;;;7.22;4.90;;;;;;;;;;5019474;28;20205;-82
2023/06/26 11:28:05;;;;;;;7.93;4.97;;;;;;;;;;5020072;28;20093;-84
2023/06/26 11:30:32;;;;;;;6.32;5.15;;;;;;;;;;5023060;28;20072;-83
2023/06/26 11:33:05;;;;;;;6.00;4.63;;;;;;;;;;5027369;28;20050;-84
2023/06/26 11:35:33;;;;;;;5.72;4.97;;;;;;;;;;5014781;28;20061;-85
2023/06/26 11:38:03;;;;;;;14.05;5.50;;;;;;;;;;5013446;28;20073;-82
2023/06/26 11:40:32;;;;;;;6.80;5.57;;;;;;;;;;5005793;28;20077;-85
2023/06/26 11:43:00;;;;;;;6.72;5.65;;;;;;;;;;5023520;28;20046;-81
2023/06/26 11:45:30;;;;;;;8.43;5.10;;;;;;;;;;5022539;28;20045;-83
2023/06/26 11:47:57;;;;;;;7.43;5.75;;;;;;;;;;5021428;28;20057;-82
2023/06/26 11:50:24;;;;;;;9.40;5.40;;;;;;;;;;5022881;28;20054;-82
2023/06/26 11:52:58;;;;;;;7.60;5.55;;;;;;;;;;5019497;28;20211;-81
2023/06/26 11:55:25;;;;;;;6.10;5.50;;;;;;;;;;5021200;28;20602;-83
2023/06/26 11:57:55;;;;;;;6.47;5.32;;;;;;;;;;5037711;28;20105;-82
2023/06/26 12:00:22;;;;;;;9.18;5.40;;;;;;;;;;5039693;28;20049;-85
2023/06/26 12:02:49;;;;;;;5.75;4.88;;;;;;;;;;5043504;28;20045;-84
2023/06/26 12:05:16;;;;;;;5.93;5.00;;;;;;;;;;5029012;28;20105;-82
2023/06/26 12:07:45;;;;;;;8.48;5.47;;;;;;;;;;5028503;28;20053;-84
2023/06/26 12:10:13;;;;;;;9.65;5.05;;;;;;;;;;5025734;28;20053;-83
2023/06/26 12:12:39;;;;;;;5.95;5.10;;;;;;;;;;5029506;28;20041;-83
2023/06/26 12:15:07;;;;;;;5.90;4.90;;;;;;;;;;5046406;28;20049;-80
2023/06/26 12:17:36;;;;;;;7.47;4.93;;;;;;;;;;5046755;28;20080;-85
2023/06/26 12:20:05;;;;;;;8.05;5.25;;;;;;;;;;5025654;28;20095;-84
2023/06/26 12:22:35;;;;;;;7.63;5.45;;;;;;;;;;5010142;28;20082;-85
2023/06/26 12:25:02;;;;;;;7.70;5.45;;;;;;;;;;5046971;28;20249;-86
2023/06/26 12:27:28;;;;;;;7.28;5.90;;;;;;;;;;5044532;28;20053;-81
2023/06/26 12:29:58;;;;;;;6.85;5.70;;;;;;;;;;5043720;28;20120;-84
2023/06/26 12:32:25;;;;;;;5.82;5.07;;;;;;;;;;5044280;28;20589;-84
2023/06/26 12:34:53;;;;;;;7.13;4.63;;;;;;;;;;5027843;28;20072;-84
2023/06/26 12:37:19;;;;;;;7.75;4.93;;;;;;;;;;5042100;28;20497;-80
2023/06/26 12:39:49;;;;;;;6.10;4.75;;;;;;;;;;5024370;28;20101;-80
2023/06/26 12:42:18;;;;;;;5.72;4.88;;;;;;;;;;5043983;28;20049;-85
2023/06/26 12:44:45;;;;;;;6.07;5.47;;;;;;;;;;5035705;28;20214;-83
2023/06/26 12:47:14;;;;;;;6.60;5.03;;;;;;;;;;5025947;28;20065;-83
2023/06/26 12:49:42;;;;;;;5.15;4.65;;;;;;;;;;5046476;28;20117;-82
2023/06/26 12:52:10;;;;;;;10.18;5.20;;;;;;;;;;5045904;28;20041;-83
2023/06/26 12:54:39;;;;;;;10.13;5.80;;;;;;;;;;5030394;28;20045;-83
2023/06/26 12:57:06;;;;;;;9.15;5.32;;;;;;;;;;5046726;28;20041;-83
2023/06/26 12:59:34;;;;;;;10.00;4.95;;;;;;;;;;5028919;28;20057;-83
2023/06/26 13:02:01;;;;;;;6.50;5.13;;;;;;;;;;5026648;28;20041;-80
2023/06/26 13:04:28;;;;;;;6.82;4.90;;;;;;;;;;5043997;28;20049;-83
2023/06/26 13:06:55;;;;;;;5.60;5.00;;;;;;;;;;5029333;28;20410;-83
2023/06/26 13:09:22;;;;;;;7.28;4.90;;;;;;;;;;5026552;28;20080;-82
2023/06/26 13:11:48;;;;;;;8.93;4.80;;;;;;;;;;5019365;28;20574;-82
2023/06/26 13:14:15;;;;;;;5.32;4.82;;;;;;;;;;5022945;28;20232;-82
2023/06/26 13:16:42;;;;;;;6.60;4.85;;;;;;;;;;5024546;28;20049;-81
2023/06/26 13:19:09;;;;;;;6.53;4.93;;;;;;;;;;5040534;28;20045;-82
2023/06/26 13:21:35;;;;;;;5.25;4.75;;;;;;;;;;5032635;28;20068;-83
2023/06/26 13:24:03;;;;;;;5.70;5.10;;;;;;;;;;5032551;28;20041;-82
2023/06/26 13:26:30;;;;;;;8.65;4.97;;;;;;;;;;5003770;28;20111;-83
2023/06/26 13:29:00;;;;;;;9.70;5.13;;;;;;;;;;5014507;28;20072;-80
2023/06/26 13:31:27;;;;;;;6.20;5.25;;;;;;;;;;5019683;28;20070;-83
2023/06/26 13:33:53;;;;;;;8.93;4.88;;;;;;;;;;5041082;28;20042;-82
2023/06/26 13:36:21;;;;;;;7.05;4.90;;;;;;;;;;5019453;28;20207;-81
2023/06/26 13:38:50;;;;;;;5.10;4.57;;;;;;;;;;5026673;28;20041;-82
2023/06/26 13:41:16;;;;;;;5.20;4.70;;;;;;;;;;5034859;28;20053;-85
2023/06/26 13:43:43;;;;;;;7.00;4.75;;;;;;;;;;5030779;28;20061;-82
2023/06/26 13:46:10;;;;;;;5.88;4.65;;;;;;;;;;5016198;28;20038;-83
2023/06/26 13:48:37;;;;;;;7.53;5.13;;;;;;;;;;5046339;28;20058;-84
2023/06/26 13:51:04;;;;;;;5.82;5.22;;;;;;;;;;5021428;28;20490;-86
2023/06/26 13:53:31;;;;;;;5.95;5.00;;;;;;;;;;5011288;28;20053;-81
2023/06/26 13:56:00;;;;;;;5.90;5.20;;;;;;;;;;5011414;28;20074;-83
2023/06/26 13:58:28;;;;;;;9.05;5.07;;;;;;;;;;5027848;28;20552;-81
2023/06/26 14:00:54;;;;;;;10.57;5.20;;;;;;;;;;5018158;28;20068;-80
2023/06/26 14:03:21;;;;;;;5.55;4.93;;;;;;;;;;5039665;28;20080;-83
2023/06/26 14:05:48;;;;;;;6.68;5.35;;;;;;;;;;5050674;28;20104;-84
2023/06/26 14:08:15;;;;;;;6.40;4.75;;;;;;;;;;5027422;28;20045;-82
2023/06/26 14:10:42;;;;;;;9.07;5.72;;;;;;;;;;5045300;28;20042;-82
2023/06/26 14:13:11;;;;;;;6.03;5.00;;;;;;;;;;5011742;28;20077;-81
2023/06/26 14:15:40;;;;;;;6.00;4.95;;;;;;;;;;5016372;28;20053;-83
2023/06/26 14:18:06;;;;;;;6.80;5.22;;;;;;;;;;5025941;28;20049;-83
2023/06/26 14:20:35;;;;;;;8.15;5.35;;;;;;;;;;5017582;28;20068;-81
2023/06/26 14:23:03;;;;;;;7.00;5.22;;;;;;;;;;5018749;28;20042;-83
2023/06/26 14:25:30;;;;;;;7.40;4.90;;;;;;;;;;5047018;28;20041;-86
2023/06/26 14:27:57;;;;;;;6.43;5.38;;;;;;;;;;5029654;28;20069;-83
2023/06/26 14:30:24;;;;;;;5.30;4.80;;;;;;;;;;5005718;28;20116;-85
2023/06/26 14:32:51;;;;;;;8.38;5.20;;;;;;;;;;5039369;28;20069;-82
2023/06/26 14:35:18;;;;;;;6.43;5.25;;;;;;;;;;5024893;28;20580;-82
2023/06/26 14:37:45;;;;;;;8.07;5.32;;;;;;;;;;5022842;28;20526;-82
2023/06/26 14:40:12;;;;;;;6.03;5.15;;;;;;;;;;5011558;28;20038;-81
2023/06/26 14:42:39;;;;;;;6.70;5.13;;;;;;;;;;5028225;28;20094;-82